createdAt,value
2018-01-25T00:00:41.519Z,1004.95
2018-01-25T00:02:43.334Z,1004.88
2018-01-25T00:04:44.776Z,1004.97
2018-01-25T00:06:46.389Z,1005.10
2018-01-25T00:08:47.819Z,1005.07
2018-01-25T00:10:49.640Z,1005.03
2018-01-25T00:13:32.066Z,1005.06
2018-01-25T00:15:33.467Z,1005.11
2018-01-25T00:17:34.918Z,1005.11
2018-01-25T00:19:36.313Z,1005.08
2018-01-25T00:21:37.717Z,1004.96
2018-01-25T00:23:39.136Z,1005.03
2018-01-25T00:25:40.753Z,1005.06
2018-01-25T00:27:42.122Z,1005.02
2018-01-25T00:29:43.643Z,1005.15
2018-01-25T00:31:45.283Z,1005.06
2018-01-25T00:33:46.778Z,1004.99
2018-01-25T00:35:48.484Z,1005.03
2018-01-25T00:37:49.929Z,1004.99
2018-01-25T00:39:51.435Z,1005.08
2018-01-25T00:41:53.167Z,1005.25
2018-01-25T00:43:54.677Z,1005.24
2018-01-25T00:45:56.456Z,1005.21
2018-01-25T00:47:57.923Z,1005.29
2018-01-25T00:49:59.415Z,1005.19
2018-01-25T00:52:00.836Z,1005.12
2018-01-25T00:54:02.241Z,1005.16
2018-01-25T00:56:03.661Z,1005.14
2018-01-25T00:58:05.102Z,1005.16
2018-01-25T01:00:06.529Z,1005.05
2018-01-25T01:02:08.076Z,1005.06
2018-01-25T01:04:09.544Z,1005.14
2018-01-25T01:06:11.056Z,1005.21
2018-01-25T01:08:12.468Z,1005.16
2018-01-25T01:10:13.909Z,1005.12
2018-01-25T01:12:15.312Z,1005.10
2018-01-25T01:14:16.710Z,1005.10
2018-01-25T01:16:18.135Z,1005.19
2018-01-25T01:18:19.615Z,1005.27
2018-01-25T01:20:21.138Z,1005.31
2018-01-25T01:22:22.593Z,1005.33
2018-01-25T01:24:24.133Z,1005.25
2018-01-25T01:26:25.620Z,1005.25
2018-01-25T01:28:27.045Z,1005.31
2018-01-25T01:30:28.478Z,1005.30
2018-01-25T01:32:30.000Z,1005.37
2018-01-25T01:34:31.519Z,1005.46
2018-01-25T01:36:32.936Z,1005.50
2018-01-25T01:38:34.495Z,1005.49
2018-01-25T01:40:35.955Z,1005.56
2018-01-25T01:42:37.366Z,1005.55
2018-01-25T01:44:38.783Z,1005.63
2018-01-25T01:46:40.257Z,1005.68
2018-01-25T01:48:41.670Z,1005.59
2018-01-25T01:50:43.077Z,1005.53
2018-01-25T01:52:44.491Z,1005.45
2018-01-25T01:54:45.901Z,1005.45
2018-01-25T01:56:47.312Z,1005.45
2018-01-25T01:58:48.763Z,1005.40
2018-01-25T02:00:50.359Z,1005.43
2018-01-25T02:02:52.014Z,1005.47
2018-01-25T02:04:53.625Z,1005.63
2018-01-25T02:06:55.051Z,1005.72
2018-01-25T02:08:56.509Z,1005.71
2018-01-25T02:10:58.142Z,1005.78
2018-01-25T02:12:59.913Z,1005.84
2018-01-25T02:15:01.371Z,1005.85
2018-01-25T02:17:02.870Z,1006.06
2018-01-25T02:19:04.342Z,1006.09
2018-01-25T02:21:05.847Z,1006.05
2018-01-25T02:23:07.708Z,1006.09
2018-01-25T02:25:09.215Z,1006.08
2018-01-25T02:27:10.876Z,1006.09
2018-01-25T02:29:12.699Z,1006.02
2018-01-25T02:31:14.339Z,1006.05
2018-01-25T02:33:56.734Z,1005.96
2018-01-25T02:35:58.150Z,1005.93
2018-01-25T02:37:59.565Z,1005.93
2018-01-25T02:40:01.169Z,1005.95
2018-01-25T02:42:02.599Z,1005.93
2018-01-25T02:44:04.007Z,1005.92
2018-01-25T02:46:05.423Z,1006.01
2018-01-25T02:48:07.028Z,1006.03
2018-01-25T02:50:08.444Z,1006.08
2018-01-25T02:52:09.854Z,1005.97
2018-01-25T02:54:11.294Z,1006.03
2018-01-25T02:56:12.778Z,1006.06
2018-01-25T02:58:14.198Z,1006.14
2018-01-25T03:00:15.624Z,1006.18
2018-01-25T03:02:17.046Z,1006.12
2018-01-25T03:04:18.450Z,1006.23
2018-01-25T03:06:20.245Z,1006.31
2018-01-25T03:08:22.397Z,1006.26
2018-01-25T03:10:24.090Z,1006.24
2018-01-25T03:12:26.242Z,1006.23
2018-01-25T03:14:27.840Z,1006.31
2018-01-25T03:16:29.528Z,1006.32
2018-01-25T03:18:31.414Z,1006.28
2018-01-25T03:20:33.396Z,1006.26
2018-01-25T03:22:34.893Z,1006.17
2018-01-25T03:24:36.349Z,1006.25
2018-01-25T03:26:37.808Z,1006.38
2018-01-25T03:28:39.376Z,1006.52
2018-01-25T03:30:40.764Z,1006.52
2018-01-25T03:32:42.289Z,1006.44
2018-01-25T03:34:43.979Z,1006.36
2018-01-25T03:36:45.616Z,1006.33
2018-01-25T03:38:47.801Z,1006.36
2018-01-25T03:40:49.835Z,1006.33
2018-01-25T03:42:51.527Z,1006.41
2018-01-25T03:44:53.031Z,1006.54
2018-01-25T03:46:54.613Z,1006.56
2018-01-25T03:48:56.099Z,1006.61
2018-01-25T03:50:57.631Z,1006.59
2018-01-25T03:52:59.156Z,1006.56
2018-01-25T03:55:00.688Z,1006.56
2018-01-25T03:57:02.374Z,1006.60
2018-01-25T03:59:03.819Z,1006.76
2018-01-25T04:01:05.345Z,1006.73
2018-01-25T04:03:06.783Z,1006.78
2018-01-25T04:05:08.305Z,1006.80
2018-01-25T04:07:09.768Z,1006.79
2018-01-25T04:09:11.515Z,1006.85
2018-01-25T04:11:13.007Z,1006.88
2018-01-25T04:13:14.960Z,1007.00
2018-01-25T04:15:16.524Z,1007.06
2018-01-25T04:17:18.039Z,1006.99
2018-01-25T04:19:19.541Z,1006.97
2018-01-25T04:21:21.212Z,1007.05
2018-01-25T04:23:22.717Z,1007.02
2018-01-25T04:25:24.888Z,1007.06
2018-01-25T04:27:26.264Z,1006.91
2018-01-25T04:29:27.667Z,1006.78
2018-01-25T04:31:29.079Z,1006.88
2018-01-25T04:33:30.490Z,1006.93
2018-01-25T04:35:31.904Z,1006.93
2018-01-25T04:37:33.311Z,1006.91
2018-01-25T04:39:34.730Z,1006.97
2018-01-25T04:41:36.138Z,1006.96
2018-01-25T04:43:37.551Z,1006.93
2018-01-25T04:45:38.965Z,1006.92
2018-01-25T04:47:40.396Z,1006.95
2018-01-25T04:49:41.849Z,1006.92
2018-01-25T04:51:43.263Z,1007.00
2018-01-25T04:53:44.669Z,1007.02
2018-01-25T04:55:46.084Z,1006.95
2018-01-25T04:57:47.495Z,1006.96
2018-01-25T04:59:49.196Z,1007.06
2018-01-25T05:01:50.651Z,1007.07
2018-01-25T05:03:52.140Z,1007.05
2018-01-25T05:05:53.859Z,1007.04
2018-01-25T05:07:55.309Z,1007.03
2018-01-25T05:09:56.787Z,1007.04
2018-01-25T05:11:58.267Z,1007.08
2018-01-25T05:13:59.773Z,1007.08
2018-01-25T05:16:01.202Z,1007.03
2018-01-25T05:18:02.679Z,1007.04
2018-01-25T05:20:04.091Z,1007.03
2018-01-25T05:22:05.538Z,1007.08
2018-01-25T05:24:06.950Z,1007.04
2018-01-25T05:26:08.424Z,1007.07
2018-01-25T05:28:10.139Z,1007.06
2018-01-25T05:30:11.599Z,1007.05
2018-01-25T05:32:13.044Z,1007.09
2018-01-25T05:34:14.811Z,1007.10
2018-01-25T05:36:16.440Z,1007.06
2018-01-25T05:38:17.986Z,1007.09
2018-01-25T05:40:19.510Z,1007.13
2018-01-25T05:42:21.542Z,1007.15
2018-01-25T05:44:23.053Z,1007.10
2018-01-25T05:46:24.572Z,1007.09
2018-01-25T05:48:26.168Z,1007.15
2018-01-25T05:50:27.725Z,1007.14
2018-01-25T05:52:29.185Z,1007.06
2018-01-25T05:54:30.660Z,1007.04
2018-01-25T05:56:32.266Z,1007.07
2018-01-25T05:58:33.723Z,1007.02
2018-01-25T06:00:35.220Z,1007.12
2018-01-25T06:02:37.005Z,1007.13
2018-01-25T06:04:38.666Z,1007.18
2018-01-25T06:06:40.137Z,1007.17
2018-01-25T06:08:41.683Z,1007.16
2018-01-25T06:10:43.315Z,1007.19
2018-01-25T06:12:45.134Z,1007.17
2018-01-25T06:14:46.819Z,1007.20
2018-01-25T06:16:48.278Z,1007.24
2018-01-25T06:18:49.873Z,1007.29
2018-01-25T06:20:51.420Z,1007.27
2018-01-25T06:22:52.928Z,1007.24
2018-01-25T06:24:54.443Z,1007.25
2018-01-25T06:26:55.957Z,1007.25
2018-01-25T06:28:57.414Z,1007.23
2018-01-25T06:30:59.322Z,1007.16
2018-01-25T06:33:00.816Z,1007.19
2018-01-25T06:35:02.303Z,1007.19
2018-01-25T06:37:03.994Z,1007.17
2018-01-25T06:39:05.679Z,1007.22
2018-01-25T06:41:07.460Z,1007.17
2018-01-25T06:43:09.095Z,1007.12
2018-01-25T06:45:10.657Z,1007.17
2018-01-25T06:47:12.189Z,1007.16
2018-01-25T06:49:13.658Z,1007.13
2018-01-25T06:51:15.186Z,1007.08
2018-01-25T06:53:57.563Z,1007.07
2018-01-25T06:55:58.978Z,1007.12
2018-01-25T06:58:00.385Z,1007.12
2018-01-25T07:00:01.803Z,1007.13
2018-01-25T07:02:03.277Z,1007.13
2018-01-25T07:04:04.766Z,1007.13
2018-01-25T07:06:06.256Z,1007.14
2018-01-25T07:08:07.815Z,1007.21
2018-01-25T07:10:09.356Z,1007.24
2018-01-25T07:12:10.812Z,1007.29
2018-01-25T07:14:12.194Z,1007.36
2018-01-25T07:16:13.645Z,1007.36
2018-01-25T07:18:15.122Z,1007.38
2018-01-25T07:20:16.784Z,1007.35
2018-01-25T07:22:18.232Z,1007.44
2018-01-25T07:24:19.782Z,1007.41
2018-01-25T07:26:21.297Z,1007.46
2018-01-25T07:28:22.831Z,1007.48
2018-01-25T07:30:24.313Z,1007.52
2018-01-25T07:32:25.778Z,1007.51
2018-01-25T07:34:27.253Z,1007.52
2018-01-25T07:36:28.766Z,1007.50
2018-01-25T07:38:30.319Z,1007.50
2018-01-25T07:40:31.773Z,1007.50
2018-01-25T07:42:33.446Z,1007.59
2018-01-25T07:44:35.051Z,1007.57
2018-01-25T07:46:36.994Z,1007.60
2018-01-25T07:48:38.456Z,1007.60
2018-01-25T07:50:39.949Z,1007.64
2018-01-25T07:52:41.398Z,1007.66
2018-01-25T07:54:42.850Z,1007.67
2018-01-25T07:56:44.350Z,1007.58
2018-01-25T07:58:45.872Z,1007.64
2018-01-25T08:00:47.301Z,1007.56
2018-01-25T08:02:48.745Z,1007.53
2018-01-25T08:04:50.260Z,1007.56
2018-01-25T08:06:51.729Z,1007.57
2018-01-25T08:08:53.211Z,1007.59
2018-01-25T08:10:54.780Z,1007.59
2018-01-25T08:12:56.298Z,1007.55
2018-01-25T08:14:57.744Z,1007.54
2018-01-25T08:16:59.224Z,1007.61
2018-01-25T08:19:00.672Z,1007.52
2018-01-25T08:21:02.132Z,1007.51
2018-01-25T08:23:03.590Z,1007.53
2018-01-25T08:25:05.003Z,1007.52
2018-01-25T08:27:22.018Z,1007.49
2018-01-25T08:29:23.432Z,1007.56
2018-01-25T08:31:24.858Z,1007.66
2018-01-25T08:33:26.264Z,1007.67
2018-01-25T08:35:27.681Z,1007.67
2018-01-25T08:37:29.093Z,1007.68
2018-01-25T08:39:30.510Z,1007.78
2018-01-25T08:41:33.226Z,1007.73
2018-01-25T08:43:33.351Z,1007.66
2018-01-25T08:45:34.818Z,1007.54
2018-01-25T08:47:36.330Z,1007.59
2018-01-25T08:49:37.904Z,1007.62
2018-01-25T08:51:39.301Z,1007.60
2018-01-25T08:53:40.717Z,1007.55
2018-01-25T08:55:42.137Z,1007.61
2018-01-25T08:57:43.554Z,1007.65
2018-01-25T08:59:45.135Z,1007.61
2018-01-25T09:01:46.639Z,1007.65
2018-01-25T09:03:48.054Z,1007.70
2018-01-25T09:05:49.474Z,1007.66
2018-01-25T09:07:50.970Z,1007.60
2018-01-25T09:09:52.430Z,1007.57
2018-01-25T09:11:53.883Z,1007.57
2018-01-25T09:13:55.310Z,1007.49
2018-01-25T09:15:56.769Z,1007.52
2018-01-25T09:17:58.243Z,1007.53
2018-01-25T09:19:59.745Z,1007.55
2018-01-25T09:22:01.206Z,1007.56
2018-01-25T09:24:02.726Z,1007.56
2018-01-25T09:26:04.213Z,1007.51
2018-01-25T09:28:05.727Z,1007.53
2018-01-25T09:30:07.137Z,1007.53
2018-01-25T09:32:08.548Z,1007.55
2018-01-25T09:34:09.965Z,1007.58
2018-01-25T09:36:11.381Z,1007.59
2018-01-25T09:38:12.795Z,1007.64
2018-01-25T09:40:14.222Z,1007.63
2018-01-25T09:42:15.638Z,1007.65
2018-01-25T09:44:17.048Z,1007.66
2018-01-25T09:46:18.453Z,1007.71
2018-01-25T09:48:19.904Z,1007.74
2018-01-25T09:50:21.407Z,1007.73
2018-01-25T09:52:22.832Z,1007.80
2018-01-25T09:54:24.274Z,1007.86
2018-01-25T09:56:25.670Z,1007.90
2018-01-25T09:58:27.084Z,1007.94
2018-01-25T10:00:28.496Z,1007.97
2018-01-25T10:02:29.912Z,1007.97
2018-01-25T10:04:31.334Z,1008.01
2018-01-25T10:06:32.748Z,1008.04
2018-01-25T10:08:34.162Z,1007.99
2018-01-25T10:10:35.579Z,1008.02
2018-01-25T10:12:36.996Z,1007.98
2018-01-25T10:14:38.426Z,1008.01
2018-01-25T10:16:39.853Z,1008.00
2018-01-25T10:18:41.271Z,1008.01
2018-01-25T10:20:42.686Z,1008.00
2018-01-25T10:22:44.144Z,1008.02
2018-01-25T10:24:45.637Z,1008.00
2018-01-25T10:26:47.064Z,1008.01
2018-01-25T10:28:48.482Z,1007.98
2018-01-25T10:30:49.895Z,1007.99
2018-01-25T10:32:51.327Z,1008.00
2018-01-25T10:34:52.741Z,1007.97
2018-01-25T10:36:54.151Z,1008.01
2018-01-25T10:38:55.570Z,1008.01
2018-01-25T10:40:57.131Z,1008.05
2018-01-25T10:42:58.570Z,1007.98
2018-01-25T10:44:59.996Z,1007.97
2018-01-25T10:47:01.501Z,1007.92
2018-01-25T10:49:02.914Z,1008.03
2018-01-25T10:51:04.326Z,1007.98
2018-01-25T10:53:05.825Z,1007.91
2018-01-25T10:55:07.249Z,1007.92
2018-01-25T10:57:08.667Z,1007.93
2018-01-25T10:59:10.100Z,1007.84
2018-01-25T11:01:11.520Z,1007.78
2018-01-25T11:03:12.940Z,1007.71
2018-01-25T11:05:14.469Z,1007.71
2018-01-25T11:07:15.956Z,1007.68
2018-01-25T11:09:17.407Z,1007.63
2018-01-25T11:11:18.846Z,1007.63
2018-01-25T11:13:20.288Z,1007.71
2018-01-25T11:15:21.708Z,1007.64
2018-01-25T11:17:23.142Z,1007.58
2018-01-25T11:19:24.563Z,1007.63
2018-01-25T11:21:25.976Z,1007.56
2018-01-25T11:23:27.402Z,1007.52
2018-01-25T11:25:28.819Z,1007.55
2018-01-25T11:27:30.235Z,1007.51
2018-01-25T11:29:31.670Z,1007.57
2018-01-25T11:31:33.112Z,1007.50
2018-01-25T11:33:34.550Z,1007.54
2018-01-25T11:35:36.051Z,1007.55
2018-01-25T11:37:37.470Z,1007.58
2018-01-25T11:39:38.879Z,1007.62
2018-01-25T11:41:40.315Z,1007.56
2018-01-25T11:43:41.721Z,1007.56
2018-01-25T11:45:43.138Z,1007.54
2018-01-25T11:47:44.555Z,1007.56
2018-01-25T11:49:45.985Z,1007.52
2018-01-25T11:51:47.447Z,1007.51
2018-01-25T11:53:48.841Z,1007.48
2018-01-25T11:55:50.363Z,1007.42
2018-01-25T11:57:51.842Z,1007.43
2018-01-25T11:59:53.327Z,1007.40
2018-01-25T12:01:54.770Z,1007.42
2018-01-25T12:03:56.199Z,1007.41
2018-01-25T12:05:57.614Z,1007.36
2018-01-25T12:07:59.056Z,1007.41
2018-01-25T12:10:00.462Z,1007.44
2018-01-25T12:12:01.920Z,1007.43
2018-01-25T12:14:03.322Z,1007.42
2018-01-25T12:16:04.742Z,1007.45
2018-01-25T12:18:06.157Z,1007.43
2018-01-25T12:20:07.569Z,1007.48
2018-01-25T12:22:08.986Z,1007.46
2018-01-25T12:24:10.410Z,1007.46
2018-01-25T12:26:11.817Z,1007.42
2018-01-25T12:28:13.236Z,1007.33
2018-01-25T12:30:14.649Z,1007.35
2018-01-25T12:32:16.084Z,1007.31
2018-01-25T12:34:17.604Z,1007.32
2018-01-25T12:36:19.130Z,1007.28
2018-01-25T12:38:20.543Z,1007.19
2018-01-25T12:40:21.963Z,1007.12
2018-01-25T12:42:23.373Z,1007.13
2018-01-25T12:44:24.843Z,1007.06
2018-01-25T12:46:26.279Z,1007.17
2018-01-25T12:48:27.734Z,1007.15
2018-01-25T12:50:29.190Z,1007.21
2018-01-25T12:52:30.583Z,1007.09
2018-01-25T12:54:31.998Z,1007.10
2018-01-25T12:56:33.412Z,1007.07
2018-01-25T12:58:34.827Z,1007.00
2018-01-25T13:00:36.244Z,1006.99
2018-01-25T13:02:37.703Z,1006.99
2018-01-25T13:04:39.132Z,1006.93
2018-01-25T13:06:40.546Z,1006.99
2018-01-25T13:08:41.966Z,1007.01
2018-01-25T13:10:43.377Z,1007.06
2018-01-25T13:12:44.794Z,1006.98
2018-01-25T13:14:46.216Z,1006.91
2018-01-25T13:16:47.624Z,1006.87
2018-01-25T13:18:49.057Z,1006.83
2018-01-25T13:20:50.472Z,1006.80
2018-01-25T13:22:51.897Z,1006.73
2018-01-25T13:24:53.343Z,1006.72
2018-01-25T13:26:54.788Z,1006.72
2018-01-25T13:28:56.207Z,1006.75
2018-01-25T13:30:57.624Z,1006.65
2018-01-25T13:32:59.038Z,1006.64
2018-01-25T13:35:00.458Z,1006.61
2018-01-25T13:37:01.870Z,1006.60
2018-01-25T13:39:03.292Z,1006.57
2018-01-25T13:41:04.751Z,1006.51
2018-01-25T13:43:06.170Z,1006.54
2018-01-25T13:45:07.582Z,1006.52
2018-01-25T13:47:09.029Z,1006.45
2018-01-25T13:49:10.440Z,1006.51
2018-01-25T13:51:11.876Z,1006.46
2018-01-25T13:53:13.321Z,1006.46
2018-01-25T13:55:14.938Z,1006.49
2018-01-25T13:57:16.344Z,1006.49
2018-01-25T13:59:17.803Z,1006.54
2018-01-25T14:01:19.249Z,1006.63
2018-01-25T14:03:20.660Z,1006.70
2018-01-25T14:05:22.079Z,1006.69
2018-01-25T14:07:23.493Z,1006.69
2018-01-25T14:09:24.908Z,1006.72
2018-01-25T14:11:26.342Z,1006.72
2018-01-25T14:13:27.751Z,1006.73
2018-01-25T14:15:29.169Z,1006.67
2018-01-25T14:17:30.586Z,1006.61
2018-01-25T14:19:32.003Z,1006.61
2018-01-25T14:21:33.423Z,1006.63
2018-01-25T14:23:34.841Z,1006.66
2018-01-25T14:25:36.259Z,1006.69
2018-01-25T14:27:37.676Z,1006.73
2018-01-25T14:29:39.096Z,1006.75
2018-01-25T14:31:40.512Z,1006.75
2018-01-25T14:33:41.923Z,1006.71
2018-01-25T14:35:43.403Z,1006.74
2018-01-25T14:37:44.846Z,1006.71
2018-01-25T14:40:27.257Z,1006.68
2018-01-25T14:42:28.665Z,1006.67
2018-01-25T14:44:30.080Z,1006.68
2018-01-25T14:46:31.495Z,1006.67
2018-01-25T14:48:32.909Z,1006.68
2018-01-25T14:50:34.330Z,1006.73
2018-01-25T14:52:35.766Z,1006.72
2018-01-25T14:54:37.184Z,1006.74
2018-01-25T14:56:38.605Z,1006.80
2018-01-25T14:59:21.007Z,1006.82
2018-01-25T15:01:22.425Z,1006.84
2018-01-25T15:03:23.842Z,1006.85
2018-01-25T15:05:25.259Z,1006.81
2018-01-25T15:07:26.674Z,1006.81
2018-01-25T15:09:28.095Z,1006.81
2018-01-25T15:11:29.509Z,1006.84
2018-01-25T15:13:30.919Z,1006.81
2018-01-25T15:15:32.339Z,1006.81
2018-01-25T15:18:14.758Z,1006.69
2018-01-25T15:20:16.175Z,1006.67
2018-01-25T15:22:17.972Z,1006.75
2018-01-25T15:24:19.002Z,1006.84
2018-01-25T15:26:20.418Z,1006.77
2018-01-25T15:28:21.835Z,1006.70
2018-01-25T15:30:23.362Z,1006.65
2018-01-25T15:32:24.776Z,1006.60
2018-01-25T15:34:26.191Z,1006.59
2018-01-25T15:37:08.590Z,1006.63
2018-01-25T15:39:10.005Z,1006.59
2018-01-25T15:41:11.422Z,1006.56
2018-01-25T15:43:12.859Z,1006.59
2018-01-25T15:45:14.549Z,1006.60
2018-01-25T15:47:15.691Z,1006.56
2018-01-25T15:49:17.131Z,1006.54
2018-01-25T15:51:18.547Z,1006.55
2018-01-25T15:53:19.965Z,1006.54
2018-01-25T15:55:21.380Z,1006.53
2018-01-25T15:58:03.972Z,1006.51
2018-01-25T16:00:05.437Z,1006.54
2018-01-25T16:02:06.841Z,1006.59
2018-01-25T16:04:08.260Z,1006.64
2018-01-25T16:06:09.678Z,1006.67
2018-01-25T16:08:11.085Z,1006.66
2018-01-25T16:10:12.502Z,1006.71
2018-01-25T16:12:13.912Z,1006.75
2018-01-25T16:14:15.330Z,1006.80
2018-01-25T16:16:57.772Z,1006.79
2018-01-25T16:18:59.161Z,1006.78
2018-01-25T16:21:00.574Z,1006.78
2018-01-25T16:23:01.994Z,1006.80
2018-01-25T16:25:03.405Z,1006.80
2018-01-25T16:27:04.825Z,1006.84
2018-01-25T16:29:06.242Z,1006.88
2018-01-25T16:31:07.656Z,1006.85
2018-01-25T16:33:09.070Z,1006.86
2018-01-25T16:35:10.482Z,1006.89
2018-01-25T16:37:52.885Z,1006.93
2018-01-25T16:39:54.315Z,1006.94
2018-01-25T16:41:55.731Z,1007.01
2018-01-25T16:43:57.143Z,1007.04
2018-01-25T16:45:58.557Z,1007.07
2018-01-25T16:47:59.968Z,1007.10
2018-01-25T16:50:01.380Z,1007.07
2018-01-25T16:52:02.794Z,1007.03
2018-01-25T16:54:04.210Z,1006.98
2018-01-25T16:56:05.613Z,1006.91
2018-01-25T16:58:07.081Z,1006.86
2018-01-25T17:00:08.434Z,1006.91
2018-01-25T17:02:09.844Z,1006.80
2018-01-25T17:04:11.259Z,1006.80
2018-01-25T17:06:12.673Z,1006.79
2018-01-25T17:08:14.148Z,1006.75
2018-01-25T17:10:15.503Z,1006.72
2018-01-25T17:12:16.928Z,1006.75
2018-01-25T17:14:18.334Z,1006.76
2018-01-25T17:16:19.751Z,1006.75
2018-01-25T17:18:21.158Z,1006.79
2018-01-25T17:20:22.570Z,1006.80
2018-01-25T17:22:23.982Z,1006.85
2018-01-25T17:24:25.391Z,1006.88
2018-01-25T17:26:26.807Z,1006.98
2018-01-25T17:28:28.218Z,1006.96
2018-01-25T17:30:29.651Z,1006.99
2018-01-25T17:32:31.042Z,1007.00
2018-01-25T17:34:32.457Z,1007.01
2018-01-25T17:36:33.869Z,1007.00
2018-01-25T17:38:35.282Z,1006.97
2018-01-25T17:40:36.698Z,1006.91
2018-01-25T17:42:38.112Z,1006.96
2018-01-25T17:44:39.528Z,1006.90
2018-01-25T17:46:40.943Z,1006.96
2018-01-25T17:48:42.366Z,1006.93
2018-01-25T17:50:43.779Z,1006.93
2018-01-25T17:52:45.196Z,1006.97
2018-01-25T17:54:46.608Z,1007.01
2018-01-25T17:56:48.021Z,1007.01
2018-01-25T17:58:49.441Z,1007.01
2018-01-25T18:00:50.849Z,1007.03
2018-01-25T18:02:52.267Z,1007.04
2018-01-25T18:04:53.681Z,1007.06
2018-01-25T18:06:55.097Z,1007.09
2018-01-25T18:08:56.511Z,1007.11
2018-01-25T18:10:57.924Z,1007.12
2018-01-25T18:12:59.343Z,1007.07
2018-01-25T18:15:41.761Z,1007.04
2018-01-25T18:17:43.170Z,1007.07
2018-01-25T18:19:44.595Z,1007.08
2018-01-25T18:21:46.002Z,1007.04
2018-01-25T18:23:47.456Z,1007.08
2018-01-25T18:25:48.906Z,1007.04
2018-01-25T18:27:50.305Z,1007.03
2018-01-25T18:29:51.724Z,1007.00
2018-01-25T18:31:53.135Z,1007.03
2018-01-25T18:33:54.549Z,1007.03
2018-01-25T18:35:55.964Z,1007.10
2018-01-25T18:37:57.380Z,1007.11
2018-01-25T18:39:58.793Z,1007.19
2018-01-25T18:42:00.211Z,1007.25
2018-01-25T18:44:01.619Z,1007.29
2018-01-25T18:46:03.033Z,1007.31
2018-01-25T18:48:04.438Z,1007.30
2018-01-25T18:50:05.860Z,1007.28
2018-01-25T18:52:07.273Z,1007.25
2018-01-25T18:54:08.687Z,1007.31
2018-01-25T18:56:10.126Z,1007.27
2018-01-25T18:58:11.523Z,1007.26
2018-01-25T19:00:12.941Z,1007.24
2018-01-25T19:02:14.351Z,1007.22
2018-01-25T19:04:15.764Z,1007.17
2018-01-25T19:06:17.179Z,1007.28
2018-01-25T19:08:18.579Z,1007.32
2018-01-25T19:10:20.004Z,1007.35
2018-01-25T19:12:21.417Z,1007.35
2018-01-25T19:14:22.827Z,1007.31
2018-01-25T19:16:24.241Z,1007.32
2018-01-25T19:18:25.654Z,1007.39
2018-01-25T19:20:27.064Z,1007.38
2018-01-25T19:22:28.478Z,1007.38
2018-01-25T19:24:29.893Z,1007.37
2018-01-25T19:26:31.307Z,1007.42
2018-01-25T19:28:32.726Z,1007.38
2018-01-25T19:30:34.136Z,1007.41
2018-01-25T19:32:35.569Z,1007.40
2018-01-25T19:34:36.975Z,1007.42
2018-01-25T19:36:38.393Z,1007.35
2018-01-25T19:38:39.878Z,1007.33
2018-01-25T19:40:41.289Z,1007.30
2018-01-25T19:42:42.702Z,1007.30
2018-01-25T19:44:44.110Z,1007.31
2018-01-25T19:46:45.521Z,1007.36
2018-01-25T19:48:46.936Z,1007.30
2018-01-25T19:50:48.349Z,1007.25
2018-01-25T19:52:49.758Z,1007.26
2018-01-25T19:54:51.170Z,1007.24
2018-01-25T19:56:52.591Z,1007.26
2018-01-25T19:58:53.998Z,1007.23
2018-01-25T20:00:55.409Z,1007.28
2018-01-25T20:02:56.898Z,1007.26
2018-01-25T20:04:58.295Z,1007.23
2018-01-25T20:06:59.711Z,1007.19
2018-01-25T20:09:01.117Z,1007.18
2018-01-25T20:11:02.528Z,1007.16
2018-01-25T20:13:03.968Z,1007.14
2018-01-25T20:15:05.353Z,1007.23
2018-01-25T20:17:06.763Z,1007.28
2018-01-25T20:19:08.177Z,1007.25
2018-01-25T20:21:09.587Z,1007.31
2018-01-25T20:23:11.008Z,1007.35
2018-01-25T20:25:12.411Z,1007.40
2018-01-25T20:27:13.846Z,1007.39
2018-01-25T20:29:15.568Z,1007.41
2018-01-25T20:31:16.978Z,1007.47
2018-01-25T20:33:18.397Z,1007.51
2018-01-25T20:35:19.808Z,1007.46
2018-01-25T20:37:21.218Z,1007.47
2018-01-25T20:39:22.629Z,1007.29
2018-01-25T20:41:24.052Z,1007.31
2018-01-25T20:43:25.453Z,1007.42
2018-01-25T20:45:26.870Z,1007.48
2018-01-25T20:47:28.277Z,1007.62
2018-01-25T20:49:29.777Z,1007.69
2018-01-25T20:51:31.193Z,1007.70
2018-01-25T20:53:32.652Z,1007.68
2018-01-25T20:55:34.067Z,1007.65
2018-01-25T20:57:35.474Z,1007.67
2018-01-25T20:59:36.887Z,1007.68
2018-01-25T21:01:38.301Z,1007.71
2018-01-25T21:03:39.709Z,1007.62
2018-01-25T21:05:41.139Z,1007.57
2018-01-25T21:07:42.529Z,1007.53
2018-01-25T21:09:43.952Z,1007.50
2018-01-25T21:11:45.360Z,1007.58
2018-01-25T21:13:46.778Z,1007.63
2018-01-25T21:15:48.194Z,1007.66
2018-01-25T21:17:49.612Z,1007.70
2018-01-25T21:19:51.018Z,1007.70
2018-01-25T21:21:52.431Z,1007.70
2018-01-25T21:23:54.008Z,1007.67
2018-01-25T21:25:55.419Z,1007.64
2018-01-25T21:27:56.830Z,1007.70
2018-01-25T21:29:58.289Z,1007.78
2018-01-25T21:31:59.689Z,1007.82
2018-01-25T21:34:01.108Z,1007.87
2018-01-25T21:36:02.522Z,1007.97
2018-01-25T21:38:03.985Z,1007.95
2018-01-25T21:40:05.411Z,1008.02
2018-01-25T21:42:06.923Z,1007.95
2018-01-25T21:44:08.337Z,1007.95
2018-01-25T21:46:09.748Z,1007.94
2018-01-25T21:48:11.156Z,1007.92
2018-01-25T21:50:12.567Z,1007.89
2018-01-25T21:52:13.987Z,1007.88
2018-01-25T21:54:15.398Z,1007.86
2018-01-25T21:56:16.809Z,1007.88
2018-01-25T21:58:18.224Z,1007.91
2018-01-25T22:00:19.633Z,1007.93
2018-01-25T22:02:21.048Z,1007.96
2018-01-25T22:04:22.457Z,1008.01
2018-01-25T22:06:23.878Z,1007.97
2018-01-25T22:08:25.287Z,1007.96
2018-01-25T22:10:26.698Z,1007.92
2018-01-25T22:12:28.117Z,1007.92
2018-01-25T22:14:29.519Z,1007.92
2018-01-25T22:16:31.084Z,1007.88
2018-01-25T22:18:32.503Z,1007.88
2018-01-25T22:20:33.917Z,1007.90
2018-01-25T22:22:35.323Z,1007.86
2018-01-25T22:24:36.734Z,1007.87
2018-01-25T22:26:38.145Z,1007.88
2018-01-25T22:28:39.762Z,1007.88
2018-01-25T22:30:41.173Z,1007.91
2018-01-25T22:32:42.588Z,1007.93
2018-01-25T22:34:44.003Z,1007.93
2018-01-25T22:36:45.435Z,1007.95
2018-01-25T22:38:46.830Z,1007.95
2018-01-25T22:40:48.239Z,1007.96
2018-01-25T22:42:49.652Z,1008.05
2018-01-25T22:44:51.065Z,1008.05
2018-01-25T22:46:52.480Z,1008.06
2018-01-25T22:48:53.891Z,1008.08
2018-01-25T22:50:55.308Z,1008.10
2018-01-25T22:52:56.715Z,1008.13
2018-01-25T22:54:58.125Z,1008.13
2018-01-25T22:56:59.537Z,1008.14
2018-01-25T22:59:00.948Z,1008.18
2018-01-25T23:01:02.356Z,1008.23
2018-01-25T23:03:03.776Z,1008.19
2018-01-25T23:05:05.183Z,1008.20
2018-01-25T23:07:06.593Z,1008.21
2018-01-25T23:09:08.014Z,1008.22
2018-01-25T23:11:09.445Z,1008.23
2018-01-25T23:13:10.847Z,1008.20
2018-01-25T23:15:12.257Z,1008.18
2018-01-25T23:17:13.668Z,1008.18
2018-01-25T23:19:15.102Z,1008.20
2018-01-25T23:21:16.515Z,1008.24
2018-01-25T23:23:17.926Z,1008.19
2018-01-25T23:25:19.339Z,1008.16
2018-01-25T23:27:20.776Z,1008.10
2018-01-25T23:29:22.183Z,1008.08
2018-01-25T23:31:23.591Z,1008.08
2018-01-25T23:33:25.026Z,1008.16
2018-01-25T23:35:26.454Z,1008.24
2018-01-25T23:37:27.872Z,1008.30
2018-01-25T23:39:29.289Z,1008.30
2018-01-25T23:41:30.703Z,1008.31
2018-01-25T23:43:32.111Z,1008.36
2018-01-25T23:45:33.567Z,1008.40
2018-01-25T23:47:35.025Z,1008.35
2018-01-25T23:49:36.430Z,1008.41
2018-01-25T23:51:37.839Z,1008.43
2018-01-25T23:53:39.279Z,1008.48
2018-01-25T23:55:40.705Z,1008.54
2018-01-25T23:57:42.128Z,1008.59
2018-01-25T23:59:43.598Z,1008.63
